KCSV

Crossville Memorial-Whitson Field Airport

Crossville, Tennessee, USA
KCSV 172320Z 1800/1824 01005KT P6SM SCT250
Issued Valid From Valid To
Oct-17 @ 23:20 UTC
(an hour ago)
Oct-18 @ 00:00 UTC
(45 minutes ago)
Oct-19 @ 00:00 UTC
(in 23 hours)
Oct-18 @ 00:00 to Oct-19 @ 00:00
KCSV 172320Z 1800/1824 01005KT P6SM SCT250
Wind Visibility Clouds
10° at 5 knots Greater than 6 miles
  • Scattered at 25,000' AGL
KCSV 172320Z 1800/1824 01005KT P6SM SCT250
Issued Oct-17 @ 23:20 UTC
(an hour ago)
Valid From Oct-18 @ 00:00 UTC
(45 minutes ago)
Valid To Oct-19 @ 00:00 UTC
(in 23 hours)
Oct-18 @ 00:00 - Oct-19 @ 00:00
Wind Visibility
10° at 5 knots Greater than 6 miles
Clouds
  • Scattered at 25,000' AGL